Flight Track Log - Related Links

Times and Time Zones

All times are in EDT time to prevent confusion due to time zone crossing. See the GLA61C flight status page for this flight to view local times or setup timezone preferences in your user account.

Time Position Orientation Groundspeed Altitude Reporting Facility
EDT Latitude Longitude Course Direction KTS MPH feet Rate Location/Type
08:04 37.3450 -108.5933 48° Northeast 167 192 8,600  Level Denver Center
08:05 37.3817 -108.5650 32° Northeast 162 186 10,900 1,983 Climbing Denver Center
08:06 37.5539 -108.2712 46° Northeast  Level FlightAware Approximate
08:06 37.4156 -108.5250 43° Northeast 165 190 12,600  Level Denver Center
08:07 37.6055 -108.2028 48° Northeast  Level FlightAware Approximate
08:07 37.4556 -108.4581 53° Northeast 189 217 14,600  Level Denver Center
08:08 37.6560 -108.1330 48° Northeast  Level FlightAware Approximate
08:09 37.7065 -108.0632 48° Northeast  Level FlightAware Approximate
08:09 37.4942 -108.4003 50° Northeast 212 244 16,400  Level Denver Center
08:10 37.7569 -107.9932 48° Northeast  Level FlightAware Approximate
08:10 37.5306 -108.3406 52° Northeast 220 253 17,900  Level Denver Center
08:11 37.5786 -108.2633 52° Northeast 237 273 19,700 1,636 Climbing Denver Center
08:12 37.6206 -108.1944 52° Northeast 253 291 21,200 1,388 Climbing Denver Center
08:13 37.6669 -108.1272 49° Northeast 263 303 22,500 1,240 Climbing Denver Center
08:14 37.7147 -108.0631 47° Northeast 263 303 23,700 1,041 Climbing Denver Center
08:15 37.7692 -107.9781 51° Northeast 276 318 24,600 645 Climbing Denver Center
08:16 37.8147 -107.8967 55° Northeast 293 337 25,000 226 Climbing Denver Center
08:17 37.8658 -107.8053 55° Northeast 323 372 25,100 -271 Climbing Denver Center
08:18 37.9403 -107.6928 50° Northeast 327 376 24,400 -595 Descending Denver Center
08:19 37.9992 -107.6222 43° Northeast 310 357 23,900 -645 Descending Denver Center
08:20 38.0747 -107.5542 35° Northeast 299 344 23,100 -297 Descending Denver Center
08:22 38.1947 -107.4372 37° Northeast 297 342 23,000 -33 Descending Denver Center
08:23 38.2528 -107.3414 52° Northeast 311 358 23,000  Level Denver Center
08:24 38.2986 -107.2511 57° Northeast 315 362 23,000  Level Denver Center
08:25 38.3600 -107.1703 46° Northeast 307 353 23,000 50 Level Denver Center
08:26 38.4164 -107.0856 50° Northeast 311 358 23,100  Climbing Denver Center
08:27 38.4664 -106.9969 54° Northeast 316 364 23,000  Descending Denver Center
08:28 38.4947 -106.8864 72° East 331 381 23,100  Climbing Denver Center
08:29 38.5447 -106.7911 56° Northeast 324 373 23,000 -50 Descending Denver Center
08:30 38.5883 -106.6900 61° Northeast 324 373 23,000  Level Denver Center
08:31 38.6189 -106.5797 70° East 328 377 23,000  Level Denver Center
08:32 38.6500 -106.4661 71° East 334 384 23,000  Level Denver Center
08:33 38.6767 -106.3511 73° East 337 388 23,000  Level Denver Center
08:34 38.7128 -106.2442 67° East 329 379 23,000  Level Denver Center
08:35 38.7497 -106.1197 69° East 330 380 23,000  Level Denver Center
08:36 38.7842 -106.0194 66° East 322 371 23,000 49 Level Denver Center
08:37 38.8328 -105.9333 54° Northeast 314 361 23,100 -443 Climbing Denver Center
08:38 38.8911 -105.8458 49° Northeast 311 358 22,100 -1,082 Descending Denver Center
08:39 38.9531 -105.7569 48° Northeast 317 365 20,900 -1,082 Descending Denver Center
08:40 39.0058 -105.6750 50° Northeast 312 359 19,900 -1,131 Descending Denver Center
08:41 39.0683 -105.5894 47° Northeast 297 342 18,600 -1,082 Descending Denver Center
08:42 39.1197 -105.5136 49° Northeast 292 336 17,700 -1,033 Descending Denver Center
08:43 39.1803 -105.4350 45° Northeast 300 345 16,500 -934 Descending Denver Center
08:44 39.2247 -105.3739 47° Northeast 283 326 15,800 -885 Descending Denver Center
08:45 39.2861 -105.2872 48° Northeast 265 305 14,700 -934 Descending Denver Center
08:46 39.3319 -105.2142 51° Northeast 259 298 13,900 -295 Descending Denver Center
08:47 39.3825 -105.1517 44° Northeast 252 290 14,100 98 Climbing Denver Center
08:48 39.4394 -105.0908 40° Northeast 265 305 14,100 -492 Level Denver Center
08:49 39.4944 -105.0289 41° Northeast 262 302 13,100 -541 Descending Denver Center
08:50 39.5550 -104.9653 39° Northeast 262 302 13,000  Descending Denver Center
08:51 39.6108 -104.9039 40° Northeast 266 306 13,100 49 Climbing Denver Center
08:52 39.6717 -104.8492 35° Northeast 266 306 13,100 -246 Level Denver Center
08:53 39.7297 -104.7900 38° Northeast 267 307 12,600 -738 Descending Denver Center
08:54 39.7644 -104.7036 62° Northeast 266 306 11,600 -738 Descending Denver Center
08:55 39.7625 -104.6103 92° East 256 295 11,100 -344 Descending Denver Center
08:56 39.7647 -104.5128 88° East 270 311 10,900 -1,279 Descending Denver Center
08:57 39.7944 -104.4364 63° Northeast 242 278 8,500 -1,377 Descending Denver Center
08:58 39.8586 -104.4419 356° North 225 259 8,100 -444 Descending Denver Center
08:59 39.8833 -104.4833 308° West 191 220 7,700 -897 Descending Denver TRACON
09:00 39.8833 -104.5500 270° West 167 192 6,500 -1,000 Descending Denver TRACON
09:01 39.8833 -104.6000 270° West 125 144 5,700 -482 Descending Denver TRACON
09:02 39.8769 -104.6433 259° West 92 106 5,400 -234 Descending Denver Center
09:04 39.8500 -104.6667 270° West  Level FlightAware Approximate
09:11 39.8617 -104.6732 270° West  Level Estimated
09:12 39.8617 -104.6732 270° West  Level Estimated
09:13 39.8617 -104.6732 270° West  Level Estimated

Login

Don't have an account? Register now (free) for customized features, flight alerts, and more!